EGCN/DSA METAR and TAF weather

Enter ICAO airport designator
Station Type Date Time Source
EGCN METAR 2019/02/23 17:50 UTC NOAA

EGCN 231750Z 16007KT 8000 NSC 12/10 Q1032


Station Type Date Time Source
EGCN Decoded METAR 2019/02/23 17:50 UTC NOAA

Station name not available
Feb 23, 2019 - 12:50 PM EST / 2019.02.23 1750 UTC
Wind: from the SSE (160 degrees) at 8 MPH (7 KT):0
Visibility: 4 mile(s):0
Temperature: 53 F (12 C)
Dew Point: 50 F (10 C)
Relative Humidity: 87%
Pressure (altimeter): 30.47 in. Hg (1032 hPa)
ob: EGCN 231750Z 16007KT 8000 NSC 12/10 Q1032
cycle: 18

Station Type Date Time Source
EGCN TAF 2019/02/23 18:00 UTC NOAA

TAF EGCN 231654Z 2318/2418 17008KT 8000 FEW045
BECMG 2318/2321 4000 BR PROB30 2323/2411 0200 FG VV///
BECMG 2410/2412 6000 NSW
BECMG 2415/2418 3000 BR


Example: see airport list